HKMO/MBA METAR and TAF weather

Enter ICAO airport designator
Station Type Date Time Source
HKMO METAR 2018/01/22 20:00 UTC NOAA

HKMO 222000Z 07012KT 9999 FEW021 25/22 Q1012 NOSIG


Station Type Date Time Source
HKMO Decoded METAR 2018/01/22 20:00 UTC NOAA

Mombasa, Kenya (HKMO) 04-02S 039-37E 55M
Jan 22, 2018 - 03:00 PM EST / 2018.01.22 2000 UTC
Wind: from the ENE (070 degrees) at 14 MPH (12 KT):0
Visibility: greater than 7 mile(s):0
Sky conditions: mostly clear
Temperature: 77 F (25 C)
Dew Point: 71 F (22 C)
Relative Humidity: 83%
Pressure (altimeter): 29.88 in. Hg (1012 hPa)
ob: HKMO 222000Z 07012KT 9999 FEW021 25/22 Q1012 NOSIG
cycle: 20

Station Type Date Time Source
HKMO TAF 2018/01/22 18:54 UTC NOAA

TAF HKMO 221700Z 2218/2324 05005KT 9999 FEW022
BECMG 2300/2306 33005KT SCT020
BECMG 2309/2312 08010KT SCT024
BECMG 2315/2318 05010KT FEW023
BECMG 2321/2324 00000KT SCT025


Example: see airport list